createdAt,value
2023-05-19T00:01:00.578Z,8.51
2023-05-19T00:03:27.337Z,8.39
2023-05-19T00:05:54.580Z,8.37
2023-05-19T00:08:24.582Z,8.42
2023-05-19T00:10:51.598Z,8.33
2023-05-19T00:13:18.311Z,8.29
2023-05-19T00:15:45.298Z,8.35
2023-05-19T00:18:14.012Z,8.23
2023-05-19T00:20:41.388Z,8.20
2023-05-19T00:23:08.297Z,8.14
2023-05-19T00:25:34.919Z,8.19
2023-05-19T00:28:02.439Z,8.16
2023-05-19T00:30:30.353Z,8.23
2023-05-19T00:32:57.148Z,8.15
2023-05-19T00:35:24.285Z,8.09
2023-05-19T00:37:50.820Z,8.13
2023-05-19T00:40:17.536Z,8.14
2023-05-19T00:42:44.018Z,8.12
2023-05-19T00:45:10.757Z,8.04
2023-05-19T00:47:37.215Z,8.04
2023-05-19T00:50:04.640Z,8.06
2023-05-19T00:52:31.230Z,8.03
2023-05-19T00:54:57.929Z,7.95
2023-05-19T00:57:25.948Z,7.98
2023-05-19T00:59:52.642Z,7.95
2023-05-19T01:02:19.453Z,7.98
2023-05-19T01:04:47.036Z,8.03
2023-05-19T01:07:15.535Z,8.01
2023-05-19T01:09:42.077Z,7.99
2023-05-19T01:12:08.981Z,7.96
2023-05-19T01:14:35.738Z,7.91
2023-05-19T01:17:27.682Z,7.83
2023-05-19T01:20:08.072Z,7.79
2023-05-19T01:23:16.654Z,7.85
2023-05-19T01:26:11.747Z,7.82
2023-05-19T01:29:12.424Z,7.75
2023-05-19T01:31:42.121Z,7.77
2023-05-19T01:34:12.016Z,7.78
2023-05-19T01:36:41.431Z,7.77
2023-05-19T01:39:08.056Z,7.71
2023-05-19T01:41:35.136Z,7.76
2023-05-19T01:44:02.290Z,7.73
2023-05-19T01:46:29.306Z,7.74
2023-05-19T01:48:56.193Z,7.74
2023-05-19T01:51:22.808Z,7.71
2023-05-19T01:53:49.299Z,7.70
2023-05-19T01:56:22.012Z,7.70
2023-05-19T01:58:58.373Z,7.69
2023-05-19T02:01:40.174Z,7.72
2023-05-19T02:04:27.305Z,7.69
2023-05-19T02:07:01.653Z,7.69
2023-05-19T02:09:56.096Z,7.68
2023-05-19T02:12:34.476Z,7.58
2023-05-19T02:15:11.232Z,7.62
2023-05-19T02:17:47.828Z,7.58
2023-05-19T02:20:15.517Z,7.57
2023-05-19T02:22:42.484Z,7.60
2023-05-19T02:25:09.603Z,7.56
2023-05-19T02:27:38.541Z,7.53
2023-05-19T02:30:06.078Z,7.49
2023-05-19T02:32:33.186Z,7.48
2023-05-19T02:35:00.146Z,7.45
2023-05-19T02:37:28.678Z,7.45
2023-05-19T02:39:55.760Z,7.42
2023-05-19T02:42:22.248Z,7.40
2023-05-19T02:44:49.032Z,7.37
2023-05-19T02:47:16.140Z,7.37
2023-05-19T02:49:44.064Z,7.37
2023-05-19T02:52:12.031Z,7.36
2023-05-19T02:54:38.758Z,7.36
2023-05-19T02:57:05.729Z,7.37
2023-05-19T02:59:32.249Z,7.39
2023-05-19T03:02:02.652Z,7.36
2023-05-19T03:04:30.013Z,7.37
2023-05-19T03:06:57.863Z,7.36
2023-05-19T03:09:24.648Z,7.41
2023-05-19T03:11:51.503Z,7.36
2023-05-19T03:14:18.573Z,7.37
2023-05-19T03:16:45.645Z,7.35
2023-05-19T03:19:12.486Z,7.40
2023-05-19T03:21:39.229Z,7.39
2023-05-19T03:24:06.598Z,7.40
2023-05-19T03:26:33.525Z,7.41
2023-05-19T03:29:00.047Z,7.45
2023-05-19T03:31:26.946Z,7.46
2023-05-19T03:33:53.696Z,7.47
2023-05-19T03:36:22.137Z,7.49
2023-05-19T03:38:48.729Z,7.45
2023-05-19T03:41:15.867Z,7.50
2023-05-19T03:43:42.499Z,7.52
2023-05-19T03:46:09.827Z,7.53
2023-05-19T03:48:55.165Z,7.51
2023-05-19T03:51:30.009Z,7.52
2023-05-19T03:54:04.384Z,7.52
2023-05-19T03:56:31.153Z,7.56
2023-05-19T03:58:57.632Z,7.65
2023-05-19T04:01:24.210Z,7.73
2023-05-19T04:03:50.797Z,7.69
2023-05-19T04:06:17.770Z,7.77
2023-05-19T04:08:44.415Z,7.80
2023-05-19T04:11:12.625Z,7.81
2023-05-19T04:13:39.108Z,7.81
2023-05-19T04:16:06.563Z,7.82
2023-05-19T04:18:33.113Z,7.87
2023-05-19T04:20:59.729Z,7.94
2023-05-19T04:23:26.375Z,7.95
2023-05-19T04:25:54.361Z,8.04
2023-05-19T04:28:21.565Z,8.02
2023-05-19T04:30:48.299Z,8.04
2023-05-19T04:33:15.175Z,8.10
2023-05-19T04:35:43.909Z,8.17
2023-05-19T04:38:12.056Z,8.20
2023-05-19T04:40:40.369Z,8.21
2023-05-19T04:43:09.372Z,8.24
2023-05-19T04:45:37.606Z,8.27
2023-05-19T04:48:05.112Z,8.28
2023-05-19T04:50:32.405Z,8.37
2023-05-19T04:52:59.928Z,8.39
2023-05-19T04:55:27.455Z,8.40
2023-05-19T04:57:53.940Z,8.34
2023-05-19T05:00:21.418Z,8.41
2023-05-19T05:02:58.777Z,8.48
2023-05-19T05:05:28.224Z,8.51
2023-05-19T05:07:55.026Z,8.57
2023-05-19T05:10:23.628Z,8.54
2023-05-19T05:12:50.693Z,8.57
2023-05-19T05:15:17.755Z,8.60
2023-05-19T05:17:48.400Z,8.64
2023-05-19T05:20:15.801Z,8.62
2023-05-19T05:22:42.567Z,8.74
2023-05-19T05:25:10.301Z,8.80
2023-05-19T05:27:37.544Z,8.84
2023-05-19T05:30:08.245Z,8.89
2023-05-19T05:32:34.989Z,8.96
2023-05-19T05:35:04.200Z,9.08
2023-05-19T05:37:31.391Z,9.08
2023-05-19T05:39:58.005Z,9.11
2023-05-19T05:42:24.900Z,9.27
2023-05-19T05:44:51.924Z,9.31
2023-05-19T05:47:18.846Z,9.43
2023-05-19T05:49:48.147Z,9.48
2023-05-19T05:52:15.775Z,9.50
2023-05-19T05:54:46.308Z,9.66
2023-05-19T05:57:15.783Z,9.74
2023-05-19T05:59:45.335Z,9.80
2023-05-19T06:02:11.993Z,9.93
2023-05-19T06:04:39.404Z,9.90
2023-05-19T06:07:06.358Z,10.01
2023-05-19T06:09:36.511Z,10.08
2023-05-19T06:12:06.469Z,10.13
2023-05-19T06:14:37.993Z,10.29
2023-05-19T06:17:14.012Z,10.35
2023-05-19T06:19:40.633Z,10.38
2023-05-19T06:22:07.515Z,10.40
2023-05-19T06:24:34.274Z,10.41
2023-05-19T06:27:01.014Z,10.45
2023-05-19T06:29:27.546Z,10.51
2023-05-19T06:31:57.021Z,10.57
2023-05-19T06:34:24.509Z,10.56
2023-05-19T06:36:51.190Z,10.63
2023-05-19T06:39:19.460Z,10.81
2023-05-19T06:41:45.950Z,10.98
2023-05-19T06:44:25.032Z,11.15
2023-05-19T06:46:51.668Z,11.26
2023-05-19T06:49:19.952Z,11.32
2023-05-19T06:51:47.788Z,11.35
2023-05-19T06:54:16.022Z,11.41
2023-05-19T06:56:42.815Z,11.47
2023-05-19T06:59:10.243Z,11.60
2023-05-19T07:01:37.873Z,11.64
2023-05-19T07:04:04.650Z,11.62
2023-05-19T07:06:31.478Z,11.73
2023-05-19T07:08:57.962Z,11.93
2023-05-19T07:11:25.175Z,12.16
2023-05-19T07:13:51.715Z,12.41
2023-05-19T07:16:24.396Z,12.82
2023-05-19T07:18:51.083Z,13.00
2023-05-19T07:21:17.691Z,13.09
2023-05-19T07:23:44.194Z,13.23
2023-05-19T07:26:11.753Z,13.44
2023-05-19T07:28:41.306Z,13.56
2023-05-19T07:31:08.388Z,13.76
2023-05-19T07:33:34.887Z,13.96
2023-05-19T07:36:01.605Z,14.09
2023-05-19T07:38:28.792Z,14.20
2023-05-19T07:40:55.468Z,14.26
2023-05-19T07:43:21.942Z,14.19
2023-05-19T07:45:48.627Z,14.22
2023-05-19T07:48:15.234Z,14.35
2023-05-19T07:50:41.894Z,14.52
2023-05-19T07:53:08.508Z,14.77
2023-05-19T07:55:35.273Z,14.72
2023-05-19T07:58:01.760Z,14.87
2023-05-19T08:00:28.605Z,14.92
2023-05-19T08:02:56.884Z,15.31
2023-05-19T08:05:23.927Z,15.40
2023-05-19T08:07:50.471Z,15.19
2023-05-19T08:10:17.282Z,15.26
2023-05-19T08:12:44.177Z,15.29
2023-05-19T08:15:11.789Z,15.57
2023-05-19T08:17:38.360Z,15.69
2023-05-19T08:20:08.074Z,15.86
2023-05-19T08:22:34.652Z,15.87
2023-05-19T08:25:01.574Z,15.90
2023-05-19T08:27:28.147Z,16.12
2023-05-19T08:29:55.338Z,16.10
2023-05-19T08:32:21.949Z,16.03
2023-05-19T08:34:48.579Z,16.01
2023-05-19T08:37:15.224Z,16.02
2023-05-19T08:39:42.293Z,16.02
2023-05-19T08:42:09.933Z,16.23
2023-05-19T08:44:37.773Z,16.14
2023-05-19T08:47:05.502Z,16.13
2023-05-19T08:49:42.833Z,16.12
2023-05-19T08:52:17.091Z,16.35
2023-05-19T08:54:50.846Z,16.39
2023-05-19T08:57:17.843Z,16.51
2023-05-19T08:59:44.569Z,16.56
2023-05-19T09:02:13.177Z,16.36
2023-05-19T09:04:40.220Z,16.42
2023-05-19T09:07:09.279Z,16.50
2023-05-19T09:09:35.756Z,16.78
2023-05-19T09:12:02.301Z,17.09
2023-05-19T09:14:29.461Z,17.12
2023-05-19T09:16:56.250Z,17.19
2023-05-19T09:19:22.915Z,17.12
2023-05-19T09:22:00.189Z,17.05
2023-05-19T09:24:27.134Z,17.11
2023-05-19T09:26:58.493Z,16.75
2023-05-19T09:29:26.426Z,16.63
2023-05-19T09:31:56.067Z,16.60
2023-05-19T09:34:24.794Z,16.84
2023-05-19T09:36:54.759Z,17.14
2023-05-19T09:39:23.824Z,17.37
2023-05-19T09:41:54.948Z,17.09
2023-05-19T09:44:24.600Z,17.20
2023-05-19T09:46:52.808Z,17.45
2023-05-19T09:49:21.235Z,17.78
2023-05-19T09:51:53.965Z,17.77
2023-05-19T09:54:23.033Z,18.00
2023-05-19T09:56:57.416Z,18.07
2023-05-19T09:59:25.302Z,18.05
2023-05-19T10:01:58.978Z,18.24
2023-05-19T10:04:29.930Z,18.57
2023-05-19T10:06:59.683Z,18.74
2023-05-19T10:09:27.998Z,18.71
2023-05-19T10:11:58.925Z,18.31
2023-05-19T10:14:27.913Z,17.92
2023-05-19T10:16:56.728Z,18.31
2023-05-19T10:19:27.657Z,18.64
2023-05-19T10:21:54.546Z,18.74
2023-05-19T10:24:21.642Z,18.90
2023-05-19T10:27:05.054Z,19.18
2023-05-19T10:29:36.415Z,19.41
2023-05-19T10:32:10.324Z,19.55
2023-05-19T10:34:50.402Z,19.87
2023-05-19T10:37:46.274Z,20.02
2023-05-19T10:40:28.426Z,20.35
2023-05-19T10:43:14.240Z,20.62
2023-05-19T10:45:49.268Z,20.33
2023-05-19T10:48:17.186Z,19.67
2023-05-19T10:50:45.893Z,19.46
2023-05-19T10:53:22.022Z,19.51
2023-05-19T10:55:59.068Z,20.06
2023-05-19T10:58:43.661Z,20.04
2023-05-19T11:01:15.206Z,19.56
2023-05-19T11:03:54.829Z,19.63
2023-05-19T11:06:27.294Z,20.10
2023-05-19T11:08:56.868Z,20.38
2023-05-19T11:11:23.698Z,20.43
2023-05-19T11:13:55.182Z,20.58
2023-05-19T11:16:29.784Z,20.63
2023-05-19T11:18:59.064Z,21.13
2023-05-19T11:21:41.585Z,21.04
2023-05-19T11:24:09.364Z,21.47
2023-05-19T11:26:45.538Z,21.89
2023-05-19T11:29:12.481Z,21.75
2023-05-19T11:31:39.197Z,21.39
2023-05-19T11:34:07.444Z,21.02
2023-05-19T11:36:36.852Z,21.61
2023-05-19T11:39:04.447Z,21.10
2023-05-19T11:41:32.319Z,20.68
2023-05-19T11:43:58.947Z,20.29
2023-05-19T11:46:25.522Z,20.20
2023-05-19T11:48:54.095Z,19.96
2023-05-19T11:51:21.578Z,20.06
2023-05-19T11:53:49.875Z,20.12
2023-05-19T11:56:16.319Z,20.30
2023-05-19T11:58:42.833Z,20.06
2023-05-19T12:01:10.196Z,20.13
2023-05-19T12:03:37.246Z,19.96
2023-05-19T12:06:05.746Z,20.05
2023-05-19T12:08:32.564Z,20.19
2023-05-19T12:10:59.394Z,20.05
2023-05-19T12:13:26.391Z,19.94
2023-05-19T12:15:53.498Z,19.73
2023-05-19T12:18:20.397Z,19.44
2023-05-19T12:20:47.100Z,19.14
2023-05-19T12:23:14.502Z,19.15
2023-05-19T12:25:41.123Z,19.28
2023-05-19T12:28:07.767Z,19.33
2023-05-19T12:30:35.124Z,19.15
2023-05-19T12:33:02.921Z,19.05
2023-05-19T12:35:33.384Z,19.02
2023-05-19T12:38:09.237Z,19.13
2023-05-19T12:40:37.107Z,19.35
2023-05-19T12:43:05.702Z,19.86
2023-05-19T12:45:36.161Z,19.95
2023-05-19T12:48:05.595Z,20.18
2023-05-19T12:50:33.989Z,21.28
2023-05-19T12:53:00.849Z,22.28
2023-05-19T12:55:27.356Z,22.43
2023-05-19T12:57:58.185Z,23.13
2023-05-19T13:00:28.135Z,23.63
2023-05-19T13:03:06.069Z,23.07
2023-05-19T13:05:36.800Z,23.81
2023-05-19T13:08:12.012Z,23.19
2023-05-19T13:10:40.106Z,23.16
2023-05-19T13:13:07.842Z,22.86
2023-05-19T13:15:40.097Z,21.97
2023-05-19T13:18:09.126Z,21.45
2023-05-19T13:20:37.423Z,22.13
2023-05-19T13:23:04.888Z,22.50
2023-05-19T13:25:33.912Z,22.69
2023-05-19T13:28:05.971Z,23.04
2023-05-19T13:30:34.066Z,23.62
2023-05-19T13:33:01.198Z,22.80
2023-05-19T13:35:28.064Z,22.41
2023-05-19T13:37:54.781Z,22.46
2023-05-19T13:40:21.369Z,22.35
2023-05-19T13:42:48.156Z,21.64
2023-05-19T13:45:14.699Z,21.49
2023-05-19T13:47:41.597Z,22.18
2023-05-19T13:50:08.339Z,22.59
2023-05-19T13:52:34.917Z,22.99
2023-05-19T13:55:01.538Z,23.51
2023-05-19T13:57:28.236Z,24.04
2023-05-19T14:00:02.430Z,23.58
2023-05-19T14:02:38.588Z,23.22
2023-05-19T14:05:06.925Z,22.88
2023-05-19T14:07:34.987Z,23.52
2023-05-19T14:10:02.703Z,23.68
2023-05-19T14:12:38.020Z,22.44
2023-05-19T14:15:11.469Z,21.39
2023-05-19T14:17:38.470Z,21.30
2023-05-19T14:20:05.628Z,21.23
2023-05-19T14:22:32.436Z,22.04
2023-05-19T14:25:00.389Z,22.57
2023-05-19T14:27:27.040Z,23.08
2023-05-19T14:29:53.506Z,23.60
2023-05-19T14:32:20.531Z,24.29
2023-05-19T14:34:47.139Z,24.62
2023-05-19T14:37:13.659Z,24.97
2023-05-19T14:39:40.236Z,24.89
2023-05-19T14:42:06.739Z,25.27
2023-05-19T14:44:33.258Z,24.92
2023-05-19T14:47:01.274Z,23.62
2023-05-19T14:49:27.739Z,22.98
2023-05-19T14:51:54.432Z,21.78
2023-05-19T14:54:20.910Z,21.44
2023-05-19T14:56:47.627Z,21.59
2023-05-19T14:59:14.221Z,22.27
2023-05-19T15:01:40.997Z,22.99
2023-05-19T15:04:07.646Z,23.85
2023-05-19T15:06:34.169Z,23.99
2023-05-19T15:09:00.651Z,24.40
2023-05-19T15:11:27.111Z,24.47
2023-05-19T15:13:53.597Z,24.25
2023-05-19T15:16:20.056Z,23.14
2023-05-19T15:18:46.684Z,22.50
2023-05-19T15:21:13.296Z,22.53
2023-05-19T15:23:39.845Z,22.02
2023-05-19T15:26:06.867Z,21.66
2023-05-19T15:28:34.154Z,22.54
2023-05-19T15:31:00.929Z,22.65
2023-05-19T15:33:27.497Z,23.27
2023-05-19T15:35:54.253Z,23.93
2023-05-19T15:38:20.928Z,24.11
2023-05-19T15:40:47.523Z,23.53
2023-05-19T15:43:14.515Z,23.95
2023-05-19T15:46:35.815Z,24.10
2023-05-19T15:49:02.453Z,24.11
2023-05-19T15:51:29.022Z,23.24
2023-05-19T15:53:55.658Z,22.27
2023-05-19T15:56:22.487Z,21.30
2023-05-19T15:58:49.793Z,20.97
2023-05-19T16:01:16.760Z,20.33
2023-05-19T16:03:44.388Z,20.28
2023-05-19T16:06:11.179Z,19.93
2023-05-19T16:08:38.005Z,19.96
2023-05-19T16:11:04.842Z,19.63
2023-05-19T16:13:33.594Z,19.79
2023-05-19T16:16:00.241Z,19.80
2023-05-19T16:18:27.686Z,20.05
2023-05-19T16:20:54.455Z,20.28
2023-05-19T16:23:21.101Z,20.51
2023-05-19T16:25:48.478Z,20.91
2023-05-19T16:28:15.027Z,21.27
2023-05-19T16:30:42.349Z,21.13
2023-05-19T16:33:09.172Z,21.11
2023-05-19T16:35:36.270Z,21.26
2023-05-19T16:38:02.908Z,21.28
2023-05-19T16:40:30.918Z,20.80
2023-05-19T16:42:57.970Z,21.30
2023-05-19T16:45:26.156Z,21.94
2023-05-19T16:47:52.748Z,21.88
2023-05-19T16:50:19.221Z,21.92
2023-05-19T16:52:46.042Z,22.85
2023-05-19T16:55:16.580Z,23.30
2023-05-19T16:57:43.078Z,22.93
2023-05-19T17:00:10.189Z,22.36
2023-05-19T17:02:36.878Z,21.65
2023-05-19T17:05:03.662Z,21.14
2023-05-19T17:07:30.355Z,20.92
2023-05-19T17:09:56.898Z,20.80
2023-05-19T17:12:23.646Z,20.57
2023-05-19T17:14:51.917Z,20.45
2023-05-19T17:17:19.476Z,20.25
2023-05-19T17:19:46.736Z,20.14
2023-05-19T17:22:13.387Z,19.96
2023-05-19T17:24:39.882Z,20.02
2023-05-19T17:27:06.624Z,19.56
2023-05-19T17:29:33.115Z,19.54
2023-05-19T17:31:59.807Z,19.40
2023-05-19T17:34:26.355Z,19.55
2023-05-19T17:36:52.865Z,19.23
2023-05-19T17:39:20.162Z,19.36
2023-05-19T17:41:46.729Z,19.33
2023-05-19T17:44:13.220Z,19.35
2023-05-19T17:46:39.913Z,19.16
2023-05-19T17:49:06.682Z,19.19
2023-05-19T17:51:33.589Z,18.79
2023-05-19T17:54:00.359Z,18.47
2023-05-19T17:56:27.261Z,18.59
2023-05-19T17:58:54.008Z,18.47
2023-05-19T18:01:23.753Z,18.51
2023-05-19T18:03:50.637Z,18.34
2023-05-19T18:06:18.357Z,18.32
2023-05-19T18:08:51.233Z,18.13
2023-05-19T18:11:18.406Z,18.12
2023-05-19T18:13:44.924Z,18.15
2023-05-19T18:16:12.284Z,18.21
2023-05-19T18:18:41.137Z,18.28
2023-05-19T18:21:07.957Z,18.12
2023-05-19T18:23:34.443Z,18.19
2023-05-19T18:26:01.073Z,18.19
2023-05-19T18:28:29.612Z,18.05
2023-05-19T18:31:00.923Z,18.00
2023-05-19T18:33:28.745Z,17.96
2023-05-19T18:35:58.449Z,17.84
2023-05-19T18:38:24.979Z,17.78
2023-05-19T18:40:51.822Z,17.56
2023-05-19T18:43:19.007Z,17.44
2023-05-19T18:45:48.553Z,17.28
2023-05-19T18:48:15.647Z,17.21
2023-05-19T18:50:44.468Z,17.28
2023-05-19T18:53:11.913Z,17.18
2023-05-19T18:55:38.639Z,17.18
2023-05-19T18:58:06.095Z,17.10
2023-05-19T19:00:33.240Z,17.05
2023-05-19T19:02:59.951Z,17.06
2023-05-19T19:05:26.689Z,17.02
2023-05-19T19:07:53.286Z,17.10
2023-05-19T19:10:19.913Z,16.96
2023-05-19T19:12:46.581Z,16.88
2023-05-19T19:15:13.097Z,16.88
2023-05-19T19:17:42.559Z,16.74
2023-05-19T19:20:09.792Z,16.66
2023-05-19T19:22:36.399Z,16.65
2023-05-19T19:25:03.201Z,16.65
2023-05-19T19:27:31.240Z,16.63
2023-05-19T19:29:58.756Z,16.52
2023-05-19T19:32:25.634Z,16.49
2023-05-19T19:34:53.303Z,16.55
2023-05-19T19:37:19.775Z,16.45
2023-05-19T19:39:46.701Z,16.40
2023-05-19T19:42:13.203Z,16.35
2023-05-19T19:44:39.762Z,16.41
2023-05-19T19:47:06.428Z,16.37
2023-05-19T19:49:33.558Z,16.39
2023-05-19T19:52:00.185Z,16.33
2023-05-19T19:54:27.096Z,16.23
2023-05-19T19:56:53.548Z,16.28
2023-05-19T19:59:20.233Z,16.24
2023-05-19T20:01:46.843Z,16.17
2023-05-19T20:04:13.593Z,16.17
2023-05-19T20:06:40.221Z,16.07
2023-05-19T20:09:06.890Z,16.05
2023-05-19T20:11:33.398Z,16.01
2023-05-19T20:13:59.881Z,16.02
2023-05-19T20:16:26.628Z,16.12
2023-05-19T20:18:53.167Z,16.08
2023-05-19T20:21:19.721Z,15.94
2023-05-19T20:23:46.264Z,15.90
2023-05-19T20:26:13.645Z,15.94
2023-05-19T20:28:40.587Z,15.93
2023-05-19T20:31:07.476Z,15.88
2023-05-19T20:33:34.047Z,15.93
2023-05-19T20:36:00.601Z,15.83
2023-05-19T20:38:27.089Z,15.81
2023-05-19T20:40:54.368Z,15.77
2023-05-19T20:43:21.183Z,15.76
2023-05-19T20:45:47.870Z,15.72
2023-05-19T20:48:15.802Z,15.64
2023-05-19T20:50:42.551Z,15.51
2023-05-19T20:53:09.170Z,15.48
2023-05-19T20:55:38.407Z,15.52
2023-05-19T20:58:04.966Z,15.52
2023-05-19T21:00:31.876Z,15.47
2023-05-19T21:02:58.733Z,15.35
2023-05-19T21:05:25.670Z,15.35
2023-05-19T21:07:52.159Z,15.36
2023-05-19T21:10:18.780Z,15.35
2023-05-19T21:12:46.272Z,15.31
2023-05-19T21:15:13.514Z,15.10
2023-05-19T21:17:40.099Z,15.05
2023-05-19T21:20:07.293Z,15.00
2023-05-19T21:22:35.602Z,14.88
2023-05-19T21:25:02.169Z,14.76
2023-05-19T21:27:28.629Z,14.69
2023-05-19T21:29:55.471Z,14.61
2023-05-19T21:32:21.953Z,14.56
2023-05-19T21:34:48.828Z,14.54
2023-05-19T21:37:17.179Z,14.45
2023-05-19T21:39:44.372Z,14.45
2023-05-19T21:42:10.857Z,14.41
2023-05-19T21:44:37.490Z,14.33
2023-05-19T21:47:04.018Z,14.19
2023-05-19T21:49:31.248Z,14.18
2023-05-19T21:51:57.839Z,14.13
2023-05-19T21:54:24.492Z,14.14
2023-05-19T21:56:51.106Z,14.06
2023-05-19T21:59:17.677Z,13.95
2023-05-19T22:01:44.245Z,13.90
2023-05-19T22:04:11.414Z,13.87
2023-05-19T22:06:38.015Z,13.82
2023-05-19T22:09:04.625Z,13.83
2023-05-19T22:11:31.354Z,13.77
2023-05-19T22:13:58.044Z,13.66
2023-05-19T22:16:24.717Z,13.66
2023-05-19T22:18:51.711Z,13.65
2023-05-19T22:21:18.591Z,13.58
2023-05-19T22:23:45.532Z,13.49
2023-05-19T22:26:11.993Z,13.52
2023-05-19T22:28:38.603Z,13.49
2023-05-19T22:31:05.158Z,13.45
2023-05-19T22:33:31.851Z,13.42
2023-05-19T22:35:58.360Z,13.35
2023-05-19T22:38:25.031Z,13.30
2023-05-19T22:40:51.497Z,13.29
2023-05-19T22:43:18.216Z,13.23
2023-05-19T22:45:44.791Z,13.17
2023-05-19T22:48:11.673Z,13.23
2023-05-19T22:50:38.387Z,13.22
2023-05-19T22:53:05.034Z,13.09
2023-05-19T22:55:32.144Z,13.05
2023-05-19T22:57:59.017Z,12.94
2023-05-19T23:00:25.581Z,12.92
2023-05-19T23:02:52.321Z,12.92
2023-05-19T23:05:18.897Z,12.91
2023-05-19T23:07:45.536Z,12.80
2023-05-19T23:10:12.024Z,12.72
2023-05-19T23:12:39.985Z,12.67
2023-05-19T23:15:07.905Z,12.66
2023-05-19T23:17:34.680Z,12.63
2023-05-19T23:20:01.379Z,12.61
2023-05-19T23:22:28.227Z,12.58
2023-05-19T23:24:54.819Z,12.56
2023-05-19T23:27:21.562Z,12.56
2023-05-19T23:29:49.050Z,12.53
2023-05-19T23:32:15.980Z,12.47
2023-05-19T23:34:42.470Z,12.43
2023-05-19T23:37:09.244Z,12.48
2023-05-19T23:39:38.101Z,12.51
2023-05-19T23:42:05.675Z,12.48
2023-05-19T23:44:32.159Z,12.43
2023-05-19T23:46:58.913Z,12.40
2023-05-19T23:49:25.579Z,12.39
2023-05-19T23:51:52.521Z,12.34
2023-05-19T23:54:19.004Z,12.35
2023-05-19T23:56:46.284Z,12.26
2023-05-19T23:59:12.778Z,12.22
